sensor_id;sensor_type;location;lat;lon;timestamp;P1;durP1;ratioP1;P2;durP2;ratioP2
33738;SDS011;20063;51.730;11.110;2022-12-05T00:01:51;51.13;;;27.23;;
33738;SDS011;20063;51.730;11.110;2022-12-05T00:04:17;53.47;;;27.90;;
33738;SDS011;20063;51.730;11.110;2022-12-05T00:06:42;46.55;;;25.35;;
33738;SDS011;20063;51.730;11.110;2022-12-05T00:09:09;56.25;;;26.55;;
33738;SDS011;20063;51.730;11.110;2022-12-05T00:11:36;54.42;;;25.38;;
33738;SDS011;20063;51.730;11.110;2022-12-05T00:14:04;50.00;;;26.85;;
33738;SDS011;20063;51.730;11.110;2022-12-05T00:16:31;51.35;;;26.42;;
33738;SDS011;20063;51.730;11.110;2022-12-05T00:19:00;54.42;;;26.52;;
33738;SDS011;20063;51.730;11.110;2022-12-05T00:21:27;54.75;;;26.73;;
33738;SDS011;20063;51.730;11.110;2022-12-05T00:23:56;48.58;;;26.67;;
33738;SDS011;20063;51.730;11.110;2022-12-05T00:26:23;51.88;;;28.85;;
33738;SDS011;20063;51.730;11.110;2022-12-05T00:28:49;58.20;;;27.00;;
33738;SDS011;20063;51.730;11.110;2022-12-05T00:31:16;48.42;;;26.55;;
33738;SDS011;20063;51.730;11.110;2022-12-05T00:33:44;54.55;;;27.92;;
33738;SDS011;20063;51.730;11.110;2022-12-05T00:36:11;63.47;;;25.88;;
33738;SDS011;20063;51.730;11.110;2022-12-05T00:38:39;50.60;;;26.77;;
33738;SDS011;20063;51.730;11.110;2022-12-05T00:41:08;53.97;;;26.52;;
33738;SDS011;20063;51.730;11.110;2022-12-05T00:43:39;50.42;;;28.08;;
33738;SDS011;20063;51.730;11.110;2022-12-05T00:46:06;49.92;;;25.75;;
33738;SDS011;20063;51.730;11.110;2022-12-05T00:48:33;49.95;;;25.88;;
33738;SDS011;20063;51.730;11.110;2022-12-05T00:51:00;52.92;;;25.70;;
33738;SDS011;20063;51.730;11.110;2022-12-05T00:53:27;46.42;;;26.15;;
33738;SDS011;20063;51.730;11.110;2022-12-05T00:55:54;43.78;;;25.35;;
33738;SDS011;20063;51.730;11.110;2022-12-05T00:58:19;81.03;;;24.80;;
33738;SDS011;20063;51.730;11.110;2022-12-05T01:00:45;45.47;;;22.30;;
33738;SDS011;20063;51.730;11.110;2022-12-05T01:03:10;40.40;;;22.98;;
33738;SDS011;20063;51.730;11.110;2022-12-05T01:05:36;42.50;;;23.27;;
33738;SDS011;20063;51.730;11.110;2022-12-05T01:08:02;41.72;;;21.85;;
33738;SDS011;20063;51.730;11.110;2022-12-05T01:10:27;42.55;;;23.73;;
33738;SDS011;20063;51.730;11.110;2022-12-05T01:12:53;50.72;;;25.30;;
33738;SDS011;20063;51.730;11.110;2022-12-05T01:15:19;42.53;;;22.98;;
33738;SDS011;20063;51.730;11.110;2022-12-05T01:17:44;41.05;;;23.05;;
33738;SDS011;20063;51.730;11.110;2022-12-05T01:20:10;41.00;;;23.60;;
33738;SDS011;20063;51.730;11.110;2022-12-05T01:22:36;45.03;;;24.70;;
33738;SDS011;20063;51.730;11.110;2022-12-05T01:25:01;53.25;;;25.65;;
33738;SDS011;20063;51.730;11.110;2022-12-05T01:27:29;47.38;;;24.45;;
33738;SDS011;20063;51.730;11.110;2022-12-05T01:29:54;46.05;;;23.67;;
33738;SDS011;20063;51.730;11.110;2022-12-05T01:32:21;42.45;;;24.10;;
33738;SDS011;20063;51.730;11.110;2022-12-05T01:34:47;43.30;;;23.42;;
33738;SDS011;20063;51.730;11.110;2022-12-05T01:37:12;41.50;;;22.40;;
33738;SDS011;20063;51.730;11.110;2022-12-05T01:39:38;46.20;;;21.92;;
33738;SDS011;20063;51.730;11.110;2022-12-05T01:42:04;39.03;;;22.25;;
33738;SDS011;20063;51.730;11.110;2022-12-05T01:46:55;43.58;;;24.15;;
33738;SDS011;20063;51.730;11.110;2022-12-05T01:49:29;38.20;;;21.23;;
33738;SDS011;20063;51.730;11.110;2022-12-05T01:52:02;38.38;;;21.90;;
33738;SDS011;20063;51.730;11.110;2022-12-05T01:54:34;43.78;;;23.05;;
33738;SDS011;20063;51.730;11.110;2022-12-05T01:57:02;42.03;;;22.00;;
33738;SDS011;20063;51.730;11.110;2022-12-05T01:59:31;35.67;;;21.02;;
33738;SDS011;20063;51.730;11.110;2022-12-05T02:01:59;38.65;;;20.90;;
33738;SDS011;20063;51.730;11.110;2022-12-05T02:04:25;37.05;;;20.42;;
33738;SDS011;20063;51.730;11.110;2022-12-05T02:06:51;40.85;;;21.48;;
33738;SDS011;20063;51.730;11.110;2022-12-05T02:09:17;44.67;;;22.08;;
33738;SDS011;20063;51.730;11.110;2022-12-05T02:11:53;42.42;;;21.98;;
33738;SDS011;20063;51.730;11.110;2022-12-05T02:17:12;42.65;;;20.83;;
33738;SDS011;20063;51.730;11.110;2022-12-05T02:30:39;34.08;;;20.10;;
33738;SDS011;20063;51.730;11.110;2022-12-05T02:41:21;40.47;;;20.98;;
33738;SDS011;20063;51.730;11.110;2022-12-05T02:47:08;35.50;;;20.77;;
33738;SDS011;20063;51.730;11.110;2022-12-05T02:49:36;34.50;;;20.45;;
33738;SDS011;20063;51.730;11.110;2022-12-05T02:52:07;41.47;;;21.30;;
33738;SDS011;20063;51.730;11.110;2022-12-05T02:54:36;43.92;;;20.52;;
33738;SDS011;20063;51.730;11.110;2022-12-05T02:57:05;33.53;;;20.35;;
33738;SDS011;20063;51.730;11.110;2022-12-05T02:59:33;36.53;;;20.50;;
33738;SDS011;20063;51.730;11.110;2022-12-05T03:01:58;36.67;;;19.35;;
33738;SDS011;20063;51.730;11.110;2022-12-05T03:04:24;32.65;;;19.17;;
33738;SDS011;20063;51.730;11.110;2022-12-05T03:07:05;33.67;;;18.83;;
33738;SDS011;20063;51.730;11.110;2022-12-05T03:09:48;26.15;;;16.30;;
33738;SDS011;20063;51.730;11.110;2022-12-05T03:12:21;31.38;;;18.35;;
33738;SDS011;20063;51.730;11.110;2022-12-05T03:15:07;33.42;;;17.90;;
33738;SDS011;20063;51.730;11.110;2022-12-05T03:17:44;28.67;;;16.90;;
33738;SDS011;20063;51.730;11.110;2022-12-05T03:20:27;34.08;;;17.15;;
33738;SDS011;20063;51.730;11.110;2022-12-05T03:25:22;32.85;;;16.92;;
33738;SDS011;20063;51.730;11.110;2022-12-05T03:28:01;31.30;;;16.88;;
33738;SDS011;20063;51.730;11.110;2022-12-05T03:30:52;29.02;;;15.82;;
33738;SDS011;20063;51.730;11.110;2022-12-05T03:33:25;29.05;;;15.73;;
33738;SDS011;20063;51.730;11.110;2022-12-05T03:43:57;23.23;;;13.30;;
33738;SDS011;20063;51.730;11.110;2022-12-05T03:46:29;26.00;;;15.05;;
33738;SDS011;20063;51.730;11.110;2022-12-05T03:51:49;20.20;;;12.95;;
33738;SDS011;20063;51.730;11.110;2022-12-05T03:54:24;22.67;;;13.68;;
33738;SDS011;20063;51.730;11.110;2022-12-05T03:57:02;26.77;;;15.32;;
33738;SDS011;20063;51.730;11.110;2022-12-05T03:59:38;22.65;;;14.43;;
33738;SDS011;20063;51.730;11.110;2022-12-05T04:02:11;25.02;;;13.32;;
33738;SDS011;20063;51.730;11.110;2022-12-05T04:04:52;22.92;;;13.25;;
33738;SDS011;20063;51.730;11.110;2022-12-05T04:07:26;19.27;;;11.82;;
33738;SDS011;20063;51.730;11.110;2022-12-05T04:09:56;20.83;;;12.35;;
33738;SDS011;20063;51.730;11.110;2022-12-05T04:12:26;18.02;;;11.50;;
33738;SDS011;20063;51.730;11.110;2022-12-05T04:14:58;19.80;;;12.02;;
33738;SDS011;20063;51.730;11.110;2022-12-05T04:23:20;19.80;;;11.45;;
33738;SDS011;20063;51.730;11.110;2022-12-05T04:25:53;18.73;;;11.38;;
33738;SDS011;20063;51.730;11.110;2022-12-05T04:31:10;20.90;;;12.73;;
33738;SDS011;20063;51.730;11.110;2022-12-05T04:33:42;22.27;;;12.40;;
33738;SDS011;20063;51.730;11.110;2022-12-05T04:36:15;24.58;;;12.32;;
33738;SDS011;20063;51.730;11.110;2022-12-05T04:38:50;20.48;;;13.13;;
33738;SDS011;20063;51.730;11.110;2022-12-05T04:41:44;21.30;;;12.43;;
33738;SDS011;20063;51.730;11.110;2022-12-05T04:44:19;19.30;;;11.68;;
33738;SDS011;20063;51.730;11.110;2022-12-05T04:46:49;19.88;;;12.02;;
33738;SDS011;20063;51.730;11.110;2022-12-05T04:49:23;23.40;;;13.75;;
33738;SDS011;20063;51.730;11.110;2022-12-05T04:51:52;21.60;;;12.52;;
33738;SDS011;20063;51.730;11.110;2022-12-05T04:54:27;18.25;;;12.02;;
33738;SDS011;20063;51.730;11.110;2022-12-05T04:56:58;21.88;;;12.90;;
33738;SDS011;20063;51.730;11.110;2022-12-05T04:59:32;21.30;;;13.48;;
33738;SDS011;20063;51.730;11.110;2022-12-05T05:01:59;23.40;;;11.73;;
33738;SDS011;20063;51.730;11.110;2022-12-05T05:04:32;21.33;;;12.85;;
33738;SDS011;20063;51.730;11.110;2022-12-05T05:07:06;25.42;;;13.13;;
33738;SDS011;20063;51.730;11.110;2022-12-05T05:09:35;26.58;;;12.98;;
33738;SDS011;20063;51.730;11.110;2022-12-05T05:12:02;20.13;;;11.68;;
33738;SDS011;20063;51.730;11.110;2022-12-05T05:14:28;19.02;;;12.05;;
33738;SDS011;20063;51.730;11.110;2022-12-05T05:16:54;19.95;;;11.30;;
33738;SDS011;20063;51.730;11.110;2022-12-05T05:19:20;18.95;;;12.68;;
33738;SDS011;20063;51.730;11.110;2022-12-05T05:21:46;19.48;;;12.25;;
33738;SDS011;20063;51.730;11.110;2022-12-05T05:24:12;20.00;;;11.95;;
33738;SDS011;20063;51.730;11.110;2022-12-05T05:26:40;19.80;;;10.20;;
33738;SDS011;20063;51.730;11.110;2022-12-05T05:29:08;18.15;;;11.20;;
33738;SDS011;20063;51.730;11.110;2022-12-05T05:31:34;17.55;;;11.90;;
33738;SDS011;20063;51.730;11.110;2022-12-05T05:34:01;15.93;;;11.02;;
33738;SDS011;20063;51.730;11.110;2022-12-05T05:36:26;16.83;;;11.23;;
33738;SDS011;20063;51.730;11.110;2022-12-05T05:38:56;18.33;;;10.32;;
33738;SDS011;20063;51.730;11.110;2022-12-05T05:41:28;18.92;;;11.40;;
33738;SDS011;20063;51.730;11.110;2022-12-05T05:43:55;17.85;;;10.93;;
33738;SDS011;20063;51.730;11.110;2022-12-05T05:46:22;17.88;;;11.13;;
33738;SDS011;20063;51.730;11.110;2022-12-05T05:48:50;15.75;;;9.65;;
33738;SDS011;20063;51.730;11.110;2022-12-05T05:51:16;16.52;;;9.98;;
33738;SDS011;20063;51.730;11.110;2022-12-05T05:53:43;17.35;;;9.93;;
33738;SDS011;20063;51.730;11.110;2022-12-05T05:56:09;14.23;;;8.90;;
33738;SDS011;20063;51.730;11.110;2022-12-05T05:58:37;15.23;;;9.90;;
33738;SDS011;20063;51.730;11.110;2022-12-05T06:01:07;15.85;;;10.10;;
33738;SDS011;20063;51.730;11.110;2022-12-05T06:03:33;15.15;;;9.27;;
33738;SDS011;20063;51.730;11.110;2022-12-05T06:06:00;13.50;;;8.60;;
33738;SDS011;20063;51.730;11.110;2022-12-05T06:08:28;16.35;;;8.80;;
33738;SDS011;20063;51.730;11.110;2022-12-05T06:10:55;13.52;;;8.90;;
33738;SDS011;20063;51.730;11.110;2022-12-05T06:13:21;15.85;;;8.85;;
33738;SDS011;20063;51.730;11.110;2022-12-05T06:15:46;13.63;;;8.90;;
33738;SDS011;20063;51.730;11.110;2022-12-05T06:18:12;16.00;;;9.35;;
33738;SDS011;20063;51.730;11.110;2022-12-05T06:20:37;16.20;;;9.73;;
33738;SDS011;20063;51.730;11.110;2022-12-05T06:23:03;16.90;;;9.65;;
33738;SDS011;20063;51.730;11.110;2022-12-05T06:25:29;12.18;;;8.30;;
33738;SDS011;20063;51.730;11.110;2022-12-05T06:27:54;17.52;;;10.23;;
33738;SDS011;20063;51.730;11.110;2022-12-05T06:30:20;16.05;;;8.98;;
33738;SDS011;20063;51.730;11.110;2022-12-05T06:32:46;14.38;;;9.02;;
33738;SDS011;20063;51.730;11.110;2022-12-05T06:35:11;13.30;;;8.63;;
33738;SDS011;20063;51.730;11.110;2022-12-05T06:37:46;16.50;;;9.13;;
33738;SDS011;20063;51.730;11.110;2022-12-05T06:40:12;14.32;;;9.07;;
33738;SDS011;20063;51.730;11.110;2022-12-05T06:42:38;17.30;;;9.75;;
33738;SDS011;20063;51.730;11.110;2022-12-05T06:45:04;13.75;;;9.10;;
33738;SDS011;20063;51.730;11.110;2022-12-05T06:47:30;14.13;;;8.85;;
33738;SDS011;20063;51.730;11.110;2022-12-05T06:49:56;16.27;;;8.60;;
33738;SDS011;20063;51.730;11.110;2022-12-05T06:52:22;16.60;;;8.23;;
33738;SDS011;20063;51.730;11.110;2022-12-05T06:54:48;13.98;;;8.57;;
33738;SDS011;20063;51.730;11.110;2022-12-05T06:57:13;11.93;;;8.07;;
33738;SDS011;20063;51.730;11.110;2022-12-05T06:59:39;14.65;;;9.25;;
33738;SDS011;20063;51.730;11.110;2022-12-05T07:02:05;12.27;;;8.82;;
33738;SDS011;20063;51.730;11.110;2022-12-05T07:04:32;13.77;;;8.73;;
33738;SDS011;20063;51.730;11.110;2022-12-05T07:06:58;16.30;;;9.40;;
33738;SDS011;20063;51.730;11.110;2022-12-05T07:09:26;24.95;;;13.70;;
33738;SDS011;20063;51.730;11.110;2022-12-05T07:14:40;26.98;;;14.73;;
33738;SDS011;20063;51.730;11.110;2022-12-05T07:17:09;24.33;;;14.00;;
33738;SDS011;20063;51.730;11.110;2022-12-05T07:19:35;18.33;;;11.57;;
33738;SDS011;20063;51.730;11.110;2022-12-05T07:22:00;18.13;;;11.70;;
33738;SDS011;20063;51.730;11.110;2022-12-05T07:24:26;15.60;;;10.82;;
33738;SDS011;20063;51.730;11.110;2022-12-05T07:26:52;15.38;;;9.63;;
33738;SDS011;20063;51.730;11.110;2022-12-05T07:29:17;19.77;;;10.75;;
33738;SDS011;20063;51.730;11.110;2022-12-05T07:31:43;15.68;;;9.18;;
33738;SDS011;20063;51.730;11.110;2022-12-05T07:34:09;17.92;;;10.27;;
33738;SDS011;20063;51.730;11.110;2022-12-05T07:36:34;18.33;;;10.68;;
33738;SDS011;20063;51.730;11.110;2022-12-05T07:39:00;16.02;;;10.23;;
33738;SDS011;20063;51.730;11.110;2022-12-05T07:41:27;15.98;;;10.77;;
33738;SDS011;20063;51.730;11.110;2022-12-05T07:43:56;17.38;;;12.05;;
33738;SDS011;20063;51.730;11.110;2022-12-05T07:46:23;15.63;;;10.88;;
33738;SDS011;20063;51.730;11.110;2022-12-05T07:48:49;15.23;;;10.38;;
33738;SDS011;20063;51.730;11.110;2022-12-05T07:51:16;24.58;;;13.57;;
33738;SDS011;20063;51.730;11.110;2022-12-05T07:53:43;20.38;;;12.55;;
33738;SDS011;20063;51.730;11.110;2022-12-05T07:56:09;17.13;;;11.65;;
33738;SDS011;20063;51.730;11.110;2022-12-05T07:58:38;16.23;;;10.55;;
33738;SDS011;20063;51.730;11.110;2022-12-05T08:01:11;14.93;;;10.93;;
33738;SDS011;20063;51.730;11.110;2022-12-05T08:03:39;13.35;;;8.30;;
33738;SDS011;20063;51.730;11.110;2022-12-05T08:06:07;16.33;;;10.65;;
33738;SDS011;20063;51.730;11.110;2022-12-05T08:08:34;14.77;;;10.30;;
33738;SDS011;20063;51.730;11.110;2022-12-05T08:11:13;18.58;;;11.38;;
33738;SDS011;20063;51.730;11.110;2022-12-05T08:13:41;28.83;;;17.95;;
33738;SDS011;20063;51.730;11.110;2022-12-05T08:16:09;26.23;;;17.83;;
33738;SDS011;20063;51.730;11.110;2022-12-05T08:18:36;23.27;;;14.77;;
33738;SDS011;20063;51.730;11.110;2022-12-05T08:21:03;18.98;;;13.13;;
33738;SDS011;20063;51.730;11.110;2022-12-05T08:23:34;38.67;;;24.83;;
33738;SDS011;20063;51.730;11.110;2022-12-05T08:26:01;33.70;;;22.50;;
33738;SDS011;20063;51.730;11.110;2022-12-05T08:28:28;29.95;;;19.95;;
33738;SDS011;20063;51.730;11.110;2022-12-05T08:30:55;24.17;;;16.02;;
33738;SDS011;20063;51.730;11.110;2022-12-05T08:33:20;22.73;;;14.15;;
33738;SDS011;20063;51.730;11.110;2022-12-05T08:35:46;26.35;;;16.80;;
33738;SDS011;20063;51.730;11.110;2022-12-05T08:38:11;24.15;;;14.50;;
33738;SDS011;20063;51.730;11.110;2022-12-05T08:40:37;17.92;;;12.02;;
33738;SDS011;20063;51.730;11.110;2022-12-05T08:43:03;21.92;;;13.10;;
33738;SDS011;20063;51.730;11.110;2022-12-05T08:45:28;16.30;;;11.75;;
33738;SDS011;20063;51.730;11.110;2022-12-05T08:47:54;38.65;;;20.55;;
33738;SDS011;20063;51.730;11.110;2022-12-05T08:50:19;25.23;;;14.80;;
33738;SDS011;20063;51.730;11.110;2022-12-05T08:52:45;26.83;;;15.75;;
33738;SDS011;20063;51.730;11.110;2022-12-05T08:55:11;23.80;;;16.38;;
33738;SDS011;20063;51.730;11.110;2022-12-05T08:57:36;23.75;;;16.40;;
33738;SDS011;20063;51.730;11.110;2022-12-05T09:00:02;20.83;;;14.95;;
33738;SDS011;20063;51.730;11.110;2022-12-05T09:02:29;18.75;;;12.57;;
33738;SDS011;20063;51.730;11.110;2022-12-05T09:04:55;17.83;;;11.98;;
33738;SDS011;20063;51.730;11.110;2022-12-05T09:07:21;15.90;;;11.57;;
33738;SDS011;20063;51.730;11.110;2022-12-05T09:09:46;20.73;;;14.07;;
33738;SDS011;20063;51.730;11.110;2022-12-05T09:12:12;21.25;;;13.07;;
33738;SDS011;20063;51.730;11.110;2022-12-05T09:14:38;16.75;;;11.43;;
33738;SDS011;20063;51.730;11.110;2022-12-05T09:17:04;23.85;;;14.93;;
33738;SDS011;20063;51.730;11.110;2022-12-05T09:19:31;20.73;;;12.82;;
33738;SDS011;20063;51.730;11.110;2022-12-05T09:21:56;19.52;;;12.63;;
33738;SDS011;20063;51.730;11.110;2022-12-05T09:24:22;15.18;;;10.95;;
33738;SDS011;20063;51.730;11.110;2022-12-05T09:26:48;17.73;;;12.10;;
33738;SDS011;20063;51.730;11.110;2022-12-05T09:29:14;17.48;;;11.50;;
33738;SDS011;20063;51.730;11.110;2022-12-05T09:31:40;16.48;;;11.65;;
33738;SDS011;20063;51.730;11.110;2022-12-05T09:34:06;20.48;;;13.60;;
33738;SDS011;20063;51.730;11.110;2022-12-05T09:36:33;21.75;;;13.25;;
33738;SDS011;20063;51.730;11.110;2022-12-05T09:38:59;26.15;;;15.35;;
33738;SDS011;20063;51.730;11.110;2022-12-05T09:50:05;32.83;;;19.08;;
33738;SDS011;20063;51.730;11.110;2022-12-05T09:52:37;32.63;;;16.50;;
33738;SDS011;20063;51.730;11.110;2022-12-05T09:55:18;22.45;;;14.13;;
33738;SDS011;20063;51.730;11.110;2022-12-05T09:57:46;24.77;;;15.77;;
33738;SDS011;20063;51.730;11.110;2022-12-05T10:00:15;20.70;;;13.77;;
33738;SDS011;20063;51.730;11.110;2022-12-05T10:05:35;20.67;;;13.27;;
33738;SDS011;20063;51.730;11.110;2022-12-05T10:15:51;22.58;;;13.75;;
33738;SDS011;20063;51.730;11.110;2022-12-05T10:18:32;20.50;;;13.68;;
33738;SDS011;20063;51.730;11.110;2022-12-05T10:26:21;20.55;;;14.48;;
33738;SDS011;20063;51.730;11.110;2022-12-05T10:31:47;18.73;;;13.25;;
33738;SDS011;20063;51.730;11.110;2022-12-05T10:37:17;20.80;;;12.82;;
33738;SDS011;20063;51.730;11.110;2022-12-05T10:39:43;19.13;;;13.48;;
33738;SDS011;20063;51.730;11.110;2022-12-05T10:42:43;16.55;;;11.90;;
33738;SDS011;20063;51.730;11.110;2022-12-05T10:45:04;16.85;;;11.95;;
33738;SDS011;20063;51.730;11.110;2022-12-05T10:47:32;18.52;;;13.13;;
33738;SDS011;20063;51.730;11.110;2022-12-05T10:50:02;18.35;;;12.95;;
33738;SDS011;20063;51.730;11.110;2022-12-05T10:52:30;20.38;;;13.18;;
33738;SDS011;20063;51.730;11.110;2022-12-05T10:54:58;20.45;;;11.77;;
33738;SDS011;20063;51.730;11.110;2022-12-05T10:57:27;16.63;;;11.57;;
33738;SDS011;20063;51.730;11.110;2022-12-05T10:59:54;15.25;;;10.63;;
33738;SDS011;20063;51.730;11.110;2022-12-05T11:02:22;13.93;;;10.43;;
33738;SDS011;20063;51.730;11.110;2022-12-05T11:04:51;16.95;;;11.27;;
33738;SDS011;20063;51.730;11.110;2022-12-05T11:07:31;17.38;;;10.48;;
33738;SDS011;20063;51.730;11.110;2022-12-05T11:10:19;18.73;;;12.75;;
33738;SDS011;20063;51.730;11.110;2022-12-05T11:12:47;17.63;;;12.52;;
33738;SDS011;20063;51.730;11.110;2022-12-05T11:17:43;22.08;;;13.93;;
33738;SDS011;20063;51.730;11.110;2022-12-05T11:22:42;20.65;;;14.13;;
33738;SDS011;20063;51.730;11.110;2022-12-05T11:27:56;24.52;;;16.00;;
33738;SDS011;20063;51.730;11.110;2022-12-05T11:36:45;32.05;;;19.80;;
33738;SDS011;20063;51.730;11.110;2022-12-05T11:39:18;27.52;;;17.92;;
33738;SDS011;20063;51.730;11.110;2022-12-05T11:44:27;29.38;;;18.83;;
33738;SDS011;20063;51.730;11.110;2022-12-05T12:01:07;34.55;;;20.65;;
33738;SDS011;20063;51.730;11.110;2022-12-05T12:03:56;32.20;;;19.85;;
33738;SDS011;20063;51.730;11.110;2022-12-05T12:12:17;35.05;;;22.13;;
33738;SDS011;20063;51.730;11.110;2022-12-05T12:18:00;40.00;;;22.08;;
33738;SDS011;20063;51.730;11.110;2022-12-05T12:32:47;55.97;;;28.73;;
33738;SDS011;20063;51.730;11.110;2022-12-05T12:35:04;41.65;;;22.92;;
33738;SDS011;20063;51.730;11.110;2022-12-05T12:40:48;46.10;;;23.85;;
33738;SDS011;20063;51.730;11.110;2022-12-05T12:43:26;50.67;;;25.02;;
33738;SDS011;20063;51.730;11.110;2022-12-05T12:46:23;40.60;;;24.70;;
33738;SDS011;20063;51.730;11.110;2022-12-05T12:51:30;39.75;;;24.13;;
33738;SDS011;20063;51.730;11.110;2022-12-05T12:56:41;33.90;;;21.13;;
33738;SDS011;20063;51.730;11.110;2022-12-05T12:59:41;24.95;;;15.48;;
33738;SDS011;20063;51.730;11.110;2022-12-05T13:02:38;25.35;;;16.63;;
33738;SDS011;20063;51.730;11.110;2022-12-05T13:08:38;20.95;;;13.60;;
33738;SDS011;20063;51.730;11.110;2022-12-05T13:10:46;24.20;;;15.63;;
33738;SDS011;20063;51.730;11.110;2022-12-05T13:13:15;38.88;;;23.50;;
33738;SDS011;20063;51.730;11.110;2022-12-05T13:15:46;31.52;;;19.88;;
33738;SDS011;20063;51.730;11.110;2022-12-05T13:18:21;31.35;;;18.90;;
33738;SDS011;20063;51.730;11.110;2022-12-05T13:20:49;32.00;;;18.73;;
33738;SDS011;20063;51.730;11.110;2022-12-05T13:23:22;34.78;;;20.95;;
33738;SDS011;20063;51.730;11.110;2022-12-05T13:25:50;60.80;;;33.85;;
33738;SDS011;20063;51.730;11.110;2022-12-05T13:28:34;66.03;;;34.22;;
33738;SDS011;20063;51.730;11.110;2022-12-05T13:31:06;52.78;;;27.73;;
33738;SDS011;20063;51.730;11.110;2022-12-05T13:36:15;46.10;;;27.23;;
33738;SDS011;20063;51.730;11.110;2022-12-05T13:39:04;46.30;;;28.20;;
33738;SDS011;20063;51.730;11.110;2022-12-05T13:41:57;40.65;;;24.85;;
33738;SDS011;20063;51.730;11.110;2022-12-05T13:44:40;36.83;;;22.35;;
33738;SDS011;20063;51.730;11.110;2022-12-05T13:47:14;38.85;;;23.98;;
33738;SDS011;20063;51.730;11.110;2022-12-05T13:50:07;32.78;;;22.15;;
33738;SDS011;20063;51.730;11.110;2022-12-05T13:52:57;32.42;;;20.75;;
33738;SDS011;20063;51.730;11.110;2022-12-05T13:55:33;34.00;;;21.38;;
33738;SDS011;20063;51.730;11.110;2022-12-05T13:58:01;35.20;;;22.33;;
33738;SDS011;20063;51.730;11.110;2022-12-05T14:00:45;44.83;;;24.65;;
33738;SDS011;20063;51.730;11.110;2022-12-05T14:05:46;40.70;;;22.58;;
33738;SDS011;20063;51.730;11.110;2022-12-05T14:16:36;32.15;;;18.30;;
33738;SDS011;20063;51.730;11.110;2022-12-05T14:25:37;40.83;;;23.60;;
33738;SDS011;20063;51.730;11.110;2022-12-05T14:28:58;44.95;;;23.10;;
33738;SDS011;20063;51.730;11.110;2022-12-05T14:30:59;41.20;;;23.65;;
33738;SDS011;20063;51.730;11.110;2022-12-05T14:33:40;41.25;;;23.48;;
33738;SDS011;20063;51.730;11.110;2022-12-05T14:36:06;37.00;;;21.77;;
33738;SDS011;20063;51.730;11.110;2022-12-05T14:38:40;39.90;;;23.00;;
33738;SDS011;20063;51.730;11.110;2022-12-05T14:41:31;34.55;;;22.73;;
33738;SDS011;20063;51.730;11.110;2022-12-05T14:43:59;40.03;;;23.40;;
33738;SDS011;20063;51.730;11.110;2022-12-05T14:46:30;38.33;;;22.13;;
33738;SDS011;20063;51.730;11.110;2022-12-05T14:49:02;32.30;;;18.90;;
33738;SDS011;20063;51.730;11.110;2022-12-05T14:52:00;29.38;;;17.77;;
33738;SDS011;20063;51.730;11.110;2022-12-05T14:54:35;26.85;;;16.15;;
33738;SDS011;20063;51.730;11.110;2022-12-05T14:57:03;26.98;;;16.27;;
33738;SDS011;20063;51.730;11.110;2022-12-05T15:02:21;22.42;;;13.23;;
33738;SDS011;20063;51.730;11.110;2022-12-05T15:07:42;19.40;;;11.60;;
33738;SDS011;20063;51.730;11.110;2022-12-05T15:10:24;17.60;;;11.43;;
33738;SDS011;20063;51.730;11.110;2022-12-05T15:13:11;25.17;;;13.15;;
33738;SDS011;20063;51.730;11.110;2022-12-05T15:15:42;26.25;;;13.50;;
33738;SDS011;20063;51.730;11.110;2022-12-05T15:18:33;25.33;;;14.30;;
33738;SDS011;20063;51.730;11.110;2022-12-05T15:21:13;20.48;;;11.93;;
33738;SDS011;20063;51.730;11.110;2022-12-05T15:23:55;20.83;;;12.60;;
33738;SDS011;20063;51.730;11.110;2022-12-05T15:26:54;18.23;;;11.98;;
33738;SDS011;20063;51.730;11.110;2022-12-05T15:31:48;14.95;;;10.40;;
33738;SDS011;20063;51.730;11.110;2022-12-05T15:34:30;18.92;;;11.02;;
33738;SDS011;20063;51.730;11.110;2022-12-05T15:38:18;16.90;;;11.23;;
33738;SDS011;20063;51.730;11.110;2022-12-05T15:40:20;21.10;;;14.10;;
33738;SDS011;20063;51.730;11.110;2022-12-05T15:42:51;25.60;;;15.38;;
33738;SDS011;20063;51.730;11.110;2022-12-05T15:47:50;24.42;;;15.15;;
33738;SDS011;20063;51.730;11.110;2022-12-05T15:50:41;19.73;;;13.65;;
33738;SDS011;20063;51.730;11.110;2022-12-05T15:58:31;19.52;;;11.65;;
33738;SDS011;20063;51.730;11.110;2022-12-05T16:01:11;19.30;;;12.55;;
33738;SDS011;20063;51.730;11.110;2022-12-05T16:09:12;21.45;;;12.13;;
33738;SDS011;20063;51.730;11.110;2022-12-05T16:12:41;21.35;;;13.73;;
33738;SDS011;20063;51.730;11.110;2022-12-05T16:14:43;20.08;;;12.65;;
33738;SDS011;20063;51.730;11.110;2022-12-05T16:17:13;21.65;;;13.02;;
33738;SDS011;20063;51.730;11.110;2022-12-05T16:19:41;21.55;;;13.18;;
33738;SDS011;20063;51.730;11.110;2022-12-05T16:25:36;25.10;;;12.18;;
33738;SDS011;20063;51.730;11.110;2022-12-05T16:27:41;19.80;;;11.85;;
33738;SDS011;20063;51.730;11.110;2022-12-05T16:32:36;18.67;;;12.15;;
33738;SDS011;20063;51.730;11.110;2022-12-05T16:40:36;23.50;;;13.32;;
33738;SDS011;20063;51.730;11.110;2022-12-05T16:43:06;21.42;;;12.65;;
33738;SDS011;20063;51.730;11.110;2022-12-05T16:45:42;23.65;;;13.32;;
33738;SDS011;20063;51.730;11.110;2022-12-05T16:48:22;24.30;;;13.77;;
33738;SDS011;20063;51.730;11.110;2022-12-05T16:50:52;22.23;;;13.20;;
33738;SDS011;20063;51.730;11.110;2022-12-05T16:53:42;21.55;;;12.63;;
33738;SDS011;20063;51.730;11.110;2022-12-05T16:56:13;22.65;;;13.77;;
33738;SDS011;20063;51.730;11.110;2022-12-05T16:58:41;23.95;;;13.93;;
33738;SDS011;20063;51.730;11.110;2022-12-05T17:01:13;23.85;;;14.15;;
33738;SDS011;20063;51.730;11.110;2022-12-05T17:03:46;23.63;;;14.60;;
33738;SDS011;20063;51.730;11.110;2022-12-05T17:06:12;23.13;;;14.85;;
33738;SDS011;20063;51.730;11.110;2022-12-05T17:08:39;24.88;;;13.60;;
33738;SDS011;20063;51.730;11.110;2022-12-05T17:11:08;21.25;;;12.32;;
33738;SDS011;20063;51.730;11.110;2022-12-05T17:13:39;24.77;;;14.23;;
33738;SDS011;20063;51.730;11.110;2022-12-05T17:16:05;19.05;;;12.48;;
33738;SDS011;20063;51.730;11.110;2022-12-05T17:18:31;25.20;;;14.15;;
33738;SDS011;20063;51.730;11.110;2022-12-05T17:20:58;24.40;;;12.98;;
33738;SDS011;20063;51.730;11.110;2022-12-05T17:23:25;21.73;;;13.27;;
33738;SDS011;20063;51.730;11.110;2022-12-05T17:25:52;22.45;;;13.13;;
33738;SDS011;20063;51.730;11.110;2022-12-05T17:28:21;21.27;;;12.45;;
33738;SDS011;20063;51.730;11.110;2022-12-05T17:30:48;30.80;;;15.32;;
33738;SDS011;20063;51.730;11.110;2022-12-05T17:33:14;28.55;;;14.48;;
33738;SDS011;20063;51.730;11.110;2022-12-05T17:35:41;24.17;;;13.70;;
33738;SDS011;20063;51.730;11.110;2022-12-05T17:38:07;20.23;;;12.82;;
33738;SDS011;20063;51.730;11.110;2022-12-05T17:40:37;19.30;;;13.35;;
33738;SDS011;20063;51.730;11.110;2022-12-05T17:43:03;24.33;;;14.00;;
33738;SDS011;20063;51.730;11.110;2022-12-05T17:45:29;24.48;;;14.38;;
33738;SDS011;20063;51.730;11.110;2022-12-05T17:47:55;20.85;;;13.40;;
33738;SDS011;20063;51.730;11.110;2022-12-05T17:50:22;23.83;;;14.35;;